Terminal Aerodrome Forecast
Issued by NWS Charleston, WV

Current Version | Previous Version | Text Only | Print | Product List | Glossary Off
Versions: 1 2 3 4 5 6 7 8 9 10 11 12 13 14 15 16 17 18 19 20 21 22 23 24 25

000
FTUS41 KRLX 302200 AAC
TAFPKB
TAF AMD
KPKB 302235Z 3023/3118 22004KT P6SM SCT070
     FM310500 00000KT 6SM BR SCT040
     FM310700 00000KT 3SM BR SCT040
     FM310900 00000KT 1/2SM FG OVC001
     FM311300 00000KT 3SM BR SCT001
     FM311400 VRB03KT P6SM SCT040=

USA.gov is the U.S. government's official web portal to all federal, state and local government web resources and services.